sensor_id;sensor_type;location;lat;lon;timestamp;pressure;altitude;pressure_sealevel;temperature;humidity
12146;BME280;6136;47.032;15.398;2023-09-30T00:01:08;98042.09;;;13.11;nan
12146;BME280;6136;47.032;15.398;2023-09-30T00:03:38;98059.41;;;13.18;nan
12146;BME280;6136;47.032;15.398;2023-09-30T00:06:07;98046.28;;;13.01;nan
12146;BME280;6136;47.032;15.398;2023-09-30T00:08:36;98064.91;;;13.15;nan
12146;BME280;6136;47.032;15.398;2023-09-30T00:11:06;98063.75;;;13.19;nan
12146;BME280;6136;47.032;15.398;2023-09-30T00:13:34;98060.72;;;13.25;nan
12146;BME280;6136;47.032;15.398;2023-09-30T00:16:03;98049.31;;;13.09;nan
12146;BME280;6136;47.032;15.398;2023-09-30T00:18:32;98054.81;;;13.06;nan
12146;BME280;6136;47.032;15.398;2023-09-30T00:21:02;98048.75;;;13.04;nan
12146;BME280;6136;47.032;15.398;2023-09-30T00:23:31;98037.53;;;12.99;nan
12146;BME280;6136;47.032;15.398;2023-09-30T00:25:59;98041.09;;;13.12;nan
12146;BME280;6136;47.032;15.398;2023-09-30T00:28:28;98040.56;;;13.21;nan
12146;BME280;6136;47.032;15.398;2023-09-30T00:30:56;98031.44;;;13.11;nan
12146;BME280;6136;47.032;15.398;2023-09-30T00:33:25;98041.72;;;13.17;nan
12146;BME280;6136;47.032;15.398;2023-09-30T00:35:54;98044.56;;;13.14;nan
12146;BME280;6136;47.032;15.398;2023-09-30T00:38:24;98035.06;;;13.10;nan
12146;BME280;6136;47.032;15.398;2023-09-30T00:40:52;98035.63;;;13.15;nan
12146;BME280;6136;47.032;15.398;2023-09-30T00:43:21;98031.53;;;13.09;nan
12146;BME280;6136;47.032;15.398;2023-09-30T00:45:52;98030.69;;;13.09;nan
12146;BME280;6136;47.032;15.398;2023-09-30T00:48:25;98024.25;;;12.99;nan
12146;BME280;6136;47.032;15.398;2023-09-30T00:50:54;98038.41;;;12.99;nan
12146;BME280;6136;47.032;15.398;2023-09-30T00:53:24;98031.31;;;12.86;nan
12146;BME280;6136;47.032;15.398;2023-09-30T00:55:53;98036.63;;;12.86;nan
12146;BME280;6136;47.032;15.398;2023-09-30T00:58:25;98024.00;;;12.75;nan
12146;BME280;6136;47.032;15.398;2023-09-30T01:00:56;98022.97;;;12.77;nan
12146;BME280;6136;47.032;15.398;2023-09-30T01:03:25;98034.06;;;12.84;nan
12146;BME280;6136;47.032;15.398;2023-09-30T01:05:54;98021.47;;;12.73;nan
12146;BME280;6136;47.032;15.398;2023-09-30T01:08:24;98015.28;;;12.73;nan
12146;BME280;6136;47.032;15.398;2023-09-30T01:10:53;98017.94;;;12.73;nan
12146;BME280;6136;47.032;15.398;2023-09-30T01:13:22;98024.72;;;12.91;nan
12146;BME280;6136;47.032;15.398;2023-09-30T01:15:51;98031.22;;;12.87;nan
12146;BME280;6136;47.032;15.398;2023-09-30T01:18:19;98032.97;;;12.74;nan
12146;BME280;6136;47.032;15.398;2023-09-30T01:20:48;98043.44;;;12.90;nan
12146;BME280;6136;47.032;15.398;2023-09-30T01:23:20;98034.94;;;12.70;nan
12146;BME280;6136;47.032;15.398;2023-09-30T01:25:49;98012.75;;;12.57;nan
12146;BME280;6136;47.032;15.398;2023-09-30T01:28:17;98030.00;;;12.78;nan
12146;BME280;6136;47.032;15.398;2023-09-30T01:30:46;98018.63;;;12.62;nan
12146;BME280;6136;47.032;15.398;2023-09-30T01:33:15;98015.78;;;12.51;nan
12146;BME280;6136;47.032;15.398;2023-09-30T01:35:46;98020.31;;;12.63;nan
12146;BME280;6136;47.032;15.398;2023-09-30T01:38:14;98018.69;;;12.75;nan
12146;BME280;6136;47.032;15.398;2023-09-30T01:40:44;98034.06;;;12.84;nan
12146;BME280;6136;47.032;15.398;2023-09-30T01:43:13;98035.47;;;12.90;nan
12146;BME280;6136;47.032;15.398;2023-09-30T01:45:42;98013.63;;;12.84;nan
12146;BME280;6136;47.032;15.398;2023-09-30T01:48:11;98036.53;;;12.87;nan
12146;BME280;6136;47.032;15.398;2023-09-30T01:50:40;98036.03;;;12.95;nan
12146;BME280;6136;47.032;15.398;2023-09-30T01:53:08;98039.94;;;13.03;nan
12146;BME280;6136;47.032;15.398;2023-09-30T01:55:37;98026.94;;;12.84;nan
12146;BME280;6136;47.032;15.398;2023-09-30T01:58:07;98027.88;;;12.83;nan
12146;BME280;6136;47.032;15.398;2023-09-30T02:00:38;98020.84;;;12.82;nan
12146;BME280;6136;47.032;15.398;2023-09-30T02:03:06;98014.81;;;12.66;nan
12146;BME280;6136;47.032;15.398;2023-09-30T02:05:35;98006.63;;;12.69;nan
12146;BME280;6136;47.032;15.398;2023-09-30T02:08:05;98015.94;;;12.76;nan
12146;BME280;6136;47.032;15.398;2023-09-30T02:10:34;98021.25;;;12.76;nan
12146;BME280;6136;47.032;15.398;2023-09-30T02:13:02;98027.34;;;12.78;nan
12146;BME280;6136;47.032;15.398;2023-09-30T02:15:34;98027.47;;;12.90;nan
12146;BME280;6136;47.032;15.398;2023-09-30T02:18:03;98016.50;;;12.81;nan
12146;BME280;6136;47.032;15.398;2023-09-30T02:20:32;98014.44;;;12.72;nan
12146;BME280;6136;47.032;15.398;2023-09-30T02:23:00;98027.34;;;12.64;nan
12146;BME280;6136;47.032;15.398;2023-09-30T02:25:29;98034.44;;;12.78;nan
12146;BME280;6136;47.032;15.398;2023-09-30T02:27:59;98025.81;;;12.60;nan
12146;BME280;6136;47.032;15.398;2023-09-30T02:30:27;98050.13;;;12.54;nan
12146;BME280;6136;47.032;15.398;2023-09-30T02:32:57;98040.91;;;12.60;nan
12146;BME280;6136;47.032;15.398;2023-09-30T02:35:26;98028.31;;;12.63;nan
12146;BME280;6136;47.032;15.398;2023-09-30T02:37:54;98029.81;;;12.81;nan
12146;BME280;6136;47.032;15.398;2023-09-30T02:40:23;98033.94;;;13.00;nan
12146;BME280;6136;47.032;15.398;2023-09-30T02:42:52;98025.19;;;12.98;nan
12146;BME280;6136;47.032;15.398;2023-09-30T02:45:20;98025.00;;;13.01;nan
12146;BME280;6136;47.032;15.398;2023-09-30T02:47:49;98026.75;;;12.88;nan
12146;BME280;6136;47.032;15.398;2023-09-30T02:50:19;98021.63;;;12.84;nan
12146;BME280;6136;47.032;15.398;2023-09-30T02:52:48;98015.16;;;12.89;nan
12146;BME280;6136;47.032;15.398;2023-09-30T02:55:17;98029.59;;;12.84;nan
12146;BME280;6136;47.032;15.398;2023-09-30T02:57:45;98042.88;;;12.99;nan
12146;BME280;6136;47.032;15.398;2023-09-30T03:00:14;98051.44;;;13.04;nan
12146;BME280;6136;47.032;15.398;2023-09-30T03:02:52;98033.84;;;13.01;nan
12146;BME280;6136;47.032;15.398;2023-09-30T03:05:22;98041.50;;;13.20;nan
12146;BME280;6136;47.032;15.398;2023-09-30T03:07:51;98044.47;;;13.15;nan
12146;BME280;6136;47.032;15.398;2023-09-30T03:10:19;98016.72;;;13.05;nan
12146;BME280;6136;47.032;15.398;2023-09-30T03:12:50;98036.78;;;13.11;nan
12146;BME280;6136;47.032;15.398;2023-09-30T03:15:19;98024.59;;;13.07;nan
12146;BME280;6136;47.032;15.398;2023-09-30T03:17:48;98013.59;;;13.13;nan
12146;BME280;6136;47.032;15.398;2023-09-30T03:20:19;98021.47;;;13.14;nan
12146;BME280;6136;47.032;15.398;2023-09-30T03:22:50;98026.38;;;13.20;nan
12146;BME280;6136;47.032;15.398;2023-09-30T03:25:20;98026.84;;;13.27;nan
12146;BME280;6136;47.032;15.398;2023-09-30T03:27:49;98026.16;;;13.38;nan
12146;BME280;6136;47.032;15.398;2023-09-30T03:30:18;98028.81;;;13.38;nan
12146;BME280;6136;47.032;15.398;2023-09-30T03:32:48;98017.56;;;13.20;nan
12146;BME280;6136;47.032;15.398;2023-09-30T03:35:16;98029.41;;;13.29;nan
12146;BME280;6136;47.032;15.398;2023-09-30T03:37:46;98024.94;;;13.29;nan
12146;BME280;6136;47.032;15.398;2023-09-30T03:40:16;98019.44;;;13.32;nan
12146;BME280;6136;47.032;15.398;2023-09-30T03:42:48;98038.69;;;13.63;nan
12146;BME280;6136;47.032;15.398;2023-09-30T03:45:18;98042.59;;;13.57;nan
12146;BME280;6136;47.032;15.398;2023-09-30T03:47:48;98019.44;;;13.32;nan
12146;BME280;6136;47.032;15.398;2023-09-30T03:50:18;98015.59;;;13.36;nan
12146;BME280;6136;47.032;15.398;2023-09-30T03:52:46;98029.44;;;13.41;nan
12146;BME280;6136;47.032;15.398;2023-09-30T03:55:18;98031.56;;;13.36;nan
12146;BME280;6136;47.032;15.398;2023-09-30T03:57:48;98030.25;;;13.29;nan
12146;BME280;6136;47.032;15.398;2023-09-30T04:00:18;98031.38;;;13.39;nan
12146;BME280;6136;47.032;15.398;2023-09-30T04:02:48;98040.81;;;13.31;nan
12146;BME280;6136;47.032;15.398;2023-09-30T04:05:21;98034.94;;;13.26;nan
12146;BME280;6136;47.032;15.398;2023-09-30T04:07:53;98042.22;;;13.36;nan
12146;BME280;6136;47.032;15.398;2023-09-30T04:10:23;98044.88;;;13.36;nan
12146;BME280;6136;47.032;15.398;2023-09-30T04:12:52;98037.56;;;13.40;nan
12146;BME280;6136;47.032;15.398;2023-09-30T04:15:21;98028.41;;;13.44;nan
12146;BME280;6136;47.032;15.398;2023-09-30T04:17:49;98038.94;;;13.85;nan
12146;BME280;6136;47.032;15.398;2023-09-30T04:20:18;98026.53;;;13.71;nan
12146;BME280;6136;47.032;15.398;2023-09-30T04:22:50;98035.28;;;13.60;nan
12146;BME280;6136;47.032;15.398;2023-09-30T04:25:25;98032.34;;;13.51;nan
12146;BME280;6136;47.032;15.398;2023-09-30T04:27:54;98043.03;;;13.64;nan
12146;BME280;6136;47.032;15.398;2023-09-30T04:30:22;98056.91;;;13.69;nan
12146;BME280;6136;47.032;15.398;2023-09-30T04:32:51;98050.75;;;13.68;nan
12146;BME280;6136;47.032;15.398;2023-09-30T04:35:19;98038.47;;;13.66;nan
12146;BME280;6136;47.032;15.398;2023-09-30T04:37:48;98059.59;;;13.81;nan
12146;BME280;6136;47.032;15.398;2023-09-30T04:40:18;98058.00;;;13.79;nan
12146;BME280;6136;47.032;15.398;2023-09-30T04:42:49;98064.50;;;13.75;nan
12146;BME280;6136;47.032;15.398;2023-09-30T04:45:17;98075.41;;;13.84;nan
12146;BME280;6136;47.032;15.398;2023-09-30T04:47:48;98077.94;;;13.86;nan
12146;BME280;6136;47.032;15.398;2023-09-30T04:50:17;98069.81;;;13.75;nan
12146;BME280;6136;47.032;15.398;2023-09-30T04:52:50;98074.19;;;13.76;nan
12146;BME280;6136;47.032;15.398;2023-09-30T04:55:18;98069.72;;;13.76;nan
12146;BME280;6136;47.032;15.398;2023-09-30T04:57:48;98073.69;;;13.83;nan
12146;BME280;6136;47.032;15.398;2023-09-30T05:00:19;98086.38;;;13.92;nan
12146;BME280;6136;47.032;15.398;2023-09-30T05:02:55;98073.16;;;13.91;nan
12146;BME280;6136;47.032;15.398;2023-09-30T05:05:23;98092.28;;;14.10;nan
12146;BME280;6136;47.032;15.398;2023-09-30T05:07:52;98069.41;;;13.93;nan
12146;BME280;6136;47.032;15.398;2023-09-30T05:10:20;98098.44;;;14.11;nan
12146;BME280;6136;47.032;15.398;2023-09-30T05:12:51;98099.31;;;14.11;nan
12146;BME280;6136;47.032;15.398;2023-09-30T05:15:21;98096.44;;;14.14;nan
12146;BME280;6136;47.032;15.398;2023-09-30T05:17:50;98084.19;;;14.12;nan
12146;BME280;6136;47.032;15.398;2023-09-30T05:20:18;98099.31;;;14.11;nan
12146;BME280;6136;47.032;15.398;2023-09-30T05:22:47;98085.56;;;14.17;nan
12146;BME280;6136;47.032;15.398;2023-09-30T05:25:16;98096.22;;;14.17;nan
12146;BME280;6136;47.032;15.398;2023-09-30T05:27:45;98107.22;;;14.25;nan
12146;BME280;6136;47.032;15.398;2023-09-30T05:30:16;98103.41;;;14.29;nan
12146;BME280;6136;47.032;15.398;2023-09-30T05:32:47;98094.41;;;14.30;nan
12146;BME280;6136;47.032;15.398;2023-09-30T05:35:19;98104.28;;;14.43;nan
12146;BME280;6136;47.032;15.398;2023-09-30T05:37:49;98090.78;;;14.31;nan
12146;BME280;6136;47.032;15.398;2023-09-30T05:40:20;98104.47;;;14.40;nan
12146;BME280;6136;47.032;15.398;2023-09-30T05:45:23;98118.66;;;14.53;nan
12146;BME280;6136;47.032;15.398;2023-09-30T05:47:53;98131.81;;;14.56;nan
12146;BME280;6136;47.032;15.398;2023-09-30T05:50:23;98120.28;;;14.55;nan
12146;BME280;6136;47.032;15.398;2023-09-30T05:52:54;98134.81;;;14.64;nan
12146;BME280;6136;47.032;15.398;2023-09-30T05:55:23;98124.97;;;14.64;nan
12146;BME280;6136;47.032;15.398;2023-09-30T05:57:53;98133.41;;;14.71;nan
12146;BME280;6136;47.032;15.398;2023-09-30T06:00:23;98139.94;;;14.67;nan
12146;BME280;6136;47.032;15.398;2023-09-30T06:02:56;98143.97;;;14.72;nan
12146;BME280;6136;47.032;15.398;2023-09-30T06:05:25;98149.31;;;14.72;nan
12146;BME280;6136;47.032;15.398;2023-09-30T06:07:57;98134.38;;;14.70;nan
12146;BME280;6136;47.032;15.398;2023-09-30T06:10:25;98152.41;;;14.79;nan
12146;BME280;6136;47.032;15.398;2023-09-30T06:12:54;98129.78;;;14.72;nan
12146;BME280;6136;47.032;15.398;2023-09-30T06:15:25;98142.50;;;14.81;nan
12146;BME280;6136;47.032;15.398;2023-09-30T06:17:55;98138.84;;;14.82;nan
12146;BME280;6136;47.032;15.398;2023-09-30T06:20:24;98149.97;;;14.89;nan
12146;BME280;6136;47.032;15.398;2023-09-30T06:22:54;98146.53;;;14.87;nan
12146;BME280;6136;47.032;15.398;2023-09-30T06:25:23;98145.78;;;14.85;nan
12146;BME280;6136;47.032;15.398;2023-09-30T06:27:52;98162.53;;;14.99;nan
12146;BME280;6136;47.032;15.398;2023-09-30T06:30:22;98165.09;;;15.01;nan
12146;BME280;6136;47.032;15.398;2023-09-30T06:32:58;98161.47;;;15.02;nan
12146;BME280;6136;47.032;15.398;2023-09-30T06:35:28;98177.03;;;15.08;nan
12146;BME280;6136;47.032;15.398;2023-09-30T06:37:57;98176.19;;;15.07;nan
12146;BME280;6136;47.032;15.398;2023-09-30T06:40:26;98176.00;;;15.10;nan
12146;BME280;6136;47.032;15.398;2023-09-30T06:42:55;98188.16;;;15.14;nan
12146;BME280;6136;47.032;15.398;2023-09-30T06:45:25;98186.22;;;15.17;nan
12146;BME280;6136;47.032;15.398;2023-09-30T06:47:53;98190.72;;;15.16;nan
12146;BME280;6136;47.032;15.398;2023-09-30T06:50:24;98180.47;;;15.10;nan
12146;BME280;6136;47.032;15.398;2023-09-30T06:52:52;98189.09;;;15.26;nan
12146;BME280;6136;47.032;15.398;2023-09-30T06:55:21;98203.06;;;15.30;nan
12146;BME280;6136;47.032;15.398;2023-09-30T06:57:49;98192.50;;;15.28;nan
12146;BME280;6136;47.032;15.398;2023-09-30T07:00:18;98186.59;;;15.36;nan
12146;BME280;6136;47.032;15.398;2023-09-30T07:02:46;98190.00;;;15.50;nan
12146;BME280;6136;47.032;15.398;2023-09-30T07:05:15;98200.25;;;15.57;nan
12146;BME280;6136;47.032;15.398;2023-09-30T07:07:46;98183.56;;;15.66;nan
12146;BME280;6136;47.032;15.398;2023-09-30T07:10:14;98167.53;;;15.66;nan
12146;BME280;6136;47.032;15.398;2023-09-30T07:12:42;98201.56;;;15.87;nan
12146;BME280;6136;47.032;15.398;2023-09-30T07:15:11;98192.41;;;16.03;nan
12146;BME280;6136;47.032;15.398;2023-09-30T07:17:41;98193.44;;;16.13;nan
12146;BME280;6136;47.032;15.398;2023-09-30T07:20:11;98204.00;;;16.38;nan
12146;BME280;6136;47.032;15.398;2023-09-30T07:22:40;98218.59;;;16.45;nan
12146;BME280;6136;47.032;15.398;2023-09-30T07:25:23;98201.88;;;16.54;nan
12146;BME280;6136;47.032;15.398;2023-09-30T07:27:51;98200.47;;;16.61;nan
12146;BME280;6136;47.032;15.398;2023-09-30T07:30:20;98203.19;;;16.73;nan
12146;BME280;6136;47.032;15.398;2023-09-30T07:32:48;98203.31;;;16.82;nan
12146;BME280;6136;47.032;15.398;2023-09-30T07:35:17;98221.22;;;16.93;nan
12146;BME280;6136;47.032;15.398;2023-09-30T07:37:45;98227.81;;;17.00;nan
12146;BME280;6136;47.032;15.398;2023-09-30T07:40:14;98212.38;;;17.03;nan
12146;BME280;6136;47.032;15.398;2023-09-30T07:42:44;98221.03;;;17.18;nan
12146;BME280;6136;47.032;15.398;2023-09-30T07:45:13;98234.91;;;17.23;nan
12146;BME280;6136;47.032;15.398;2023-09-30T07:47:44;98219.31;;;17.17;nan
12146;BME280;6136;47.032;15.398;2023-09-30T07:50:13;98229.53;;;17.34;nan
12146;BME280;6136;47.032;15.398;2023-09-30T07:52:41;98216.13;;;17.34;nan
12146;BME280;6136;47.032;15.398;2023-09-30T07:55:10;98226.41;;;17.40;nan
12146;BME280;6136;47.032;15.398;2023-09-30T07:57:40;98233.44;;;17.41;nan
12146;BME280;6136;47.032;15.398;2023-09-30T08:00:13;98229.56;;;17.45;nan
12146;BME280;6136;47.032;15.398;2023-09-30T08:02:43;98232.72;;;17.51;nan
12146;BME280;6136;47.032;15.398;2023-09-30T08:05:12;98228.81;;;17.55;nan
12146;BME280;6136;47.032;15.398;2023-09-30T08:07:41;98231.91;;;17.61;nan
12146;BME280;6136;47.032;15.398;2023-09-30T08:10:10;98228.94;;;17.64;nan
12146;BME280;6136;47.032;15.398;2023-09-30T08:12:40;98220.78;;;17.66;nan
12146;BME280;6136;47.032;15.398;2023-09-30T08:15:10;98220.28;;;17.72;nan
12146;BME280;6136;47.032;15.398;2023-09-30T08:17:41;98236.72;;;17.78;nan
12146;BME280;6136;47.032;15.398;2023-09-30T08:20:10;98203.97;;;17.75;nan
12146;BME280;6136;47.032;15.398;2023-09-30T08:22:40;98223.84;;;17.83;nan
12146;BME280;6136;47.032;15.398;2023-09-30T08:25:09;98220.59;;;18.01;nan
12146;BME280;6136;47.032;15.398;2023-09-30T08:27:38;98227.78;;;18.11;nan
12146;BME280;6136;47.032;15.398;2023-09-30T08:30:08;98229.25;;;18.15;nan
12146;BME280;6136;47.032;15.398;2023-09-30T08:32:37;98244.78;;;18.33;nan
12146;BME280;6136;47.032;15.398;2023-09-30T08:35:09;98225.03;;;18.34;nan
12146;BME280;6136;47.032;15.398;2023-09-30T08:37:38;98236.75;;;18.33;nan
12146;BME280;6136;47.032;15.398;2023-09-30T08:40:07;98232.78;;;18.48;nan
12146;BME280;6136;47.032;15.398;2023-09-30T08:42:38;98247.69;;;18.41;nan
12146;BME280;6136;47.032;15.398;2023-09-30T08:45:10;98259.16;;;18.43;nan
12146;BME280;6136;47.032;15.398;2023-09-30T08:47:41;98250.25;;;18.42;nan
12146;BME280;6136;47.032;15.398;2023-09-30T08:50:12;98243.06;;;18.43;nan
12146;BME280;6136;47.032;15.398;2023-09-30T08:52:43;98242.38;;;18.61;nan
12146;BME280;6136;47.032;15.398;2023-09-30T08:55:12;98228.16;;;18.82;nan
12146;BME280;6136;47.032;15.398;2023-09-30T08:57:41;98226.66;;;19.40;nan
12146;BME280;6136;47.032;15.398;2023-09-30T09:00:12;98229.50;;;19.78;nan
12146;BME280;6136;47.032;15.398;2023-09-30T09:02:42;98252.94;;;19.97;nan
12146;BME280;6136;47.032;15.398;2023-09-30T09:05:12;98237.09;;;20.04;nan
12146;BME280;6136;47.032;15.398;2023-09-30T09:07:42;98240.66;;;20.14;nan
12146;BME280;6136;47.032;15.398;2023-09-30T09:10:11;98233.91;;;20.29;nan
12146;BME280;6136;47.032;15.398;2023-09-30T09:12:41;98241.03;;;20.78;nan
12146;BME280;6136;47.032;15.398;2023-09-30T09:15:22;98241.78;;;21.37;nan
12146;BME280;6136;47.032;15.398;2023-09-30T09:17:52;98247.06;;;21.38;nan
12146;BME280;6136;47.032;15.398;2023-09-30T09:20:23;98245.22;;;21.29;nan
12146;BME280;6136;47.032;15.398;2023-09-30T09:22:53;98242.09;;;21.34;nan
12146;BME280;6136;47.032;15.398;2023-09-30T09:25:23;98237.88;;;21.58;nan
12146;BME280;6136;47.032;15.398;2023-09-30T09:27:52;98233.81;;;21.54;nan
12146;BME280;6136;47.032;15.398;2023-09-30T09:30:23;98247.94;;;21.66;nan
12146;BME280;6136;47.032;15.398;2023-09-30T09:33:02;98241.63;;;22.12;nan
12146;BME280;6136;47.032;15.398;2023-09-30T09:35:34;98240.91;;;22.55;nan
12146;BME280;6136;47.032;15.398;2023-09-30T09:38:04;98239.56;;;23.90;nan
12146;BME280;6136;47.032;15.398;2023-09-30T09:40:34;98236.13;;;25.21;nan
12146;BME280;6136;47.032;15.398;2023-09-30T09:43:04;98235.72;;;25.64;nan
12146;BME280;6136;47.032;15.398;2023-09-30T09:45:34;98220.84;;;27.29;nan
12146;BME280;6136;47.032;15.398;2023-09-30T09:48:04;98217.22;;;27.14;nan
12146;BME280;6136;47.032;15.398;2023-09-30T09:50:35;98221.38;;;27.10;nan
12146;BME280;6136;47.032;15.398;2023-09-30T09:53:05;98204.97;;;28.93;nan
12146;BME280;6136;47.032;15.398;2023-09-30T09:55:36;98204.44;;;31.36;nan
12146;BME280;6136;47.032;15.398;2023-09-30T09:58:07;98199.19;;;33.01;nan
12146;BME280;6136;47.032;15.398;2023-09-30T10:00:38;98205.41;;;31.87;nan
12146;BME280;6136;47.032;15.398;2023-09-30T10:03:07;98208.16;;;32.90;nan
12146;BME280;6136;47.032;15.398;2023-09-30T10:05:38;98203.06;;;34.77;nan
12146;BME280;6136;47.032;15.398;2023-09-30T10:08:11;98196.03;;;35.46;nan
12146;BME280;6136;47.032;15.398;2023-09-30T10:10:41;98187.00;;;32.97;nan
12146;BME280;6136;47.032;15.398;2023-09-30T10:13:51;98192.63;;;31.48;nan
12146;BME280;6136;47.032;15.398;2023-09-30T10:16:46;98188.59;;;35.70;nan
12146;BME280;6136;47.032;15.398;2023-09-30T10:19:17;98179.56;;;36.21;nan
12146;BME280;6136;47.032;15.398;2023-09-30T10:22:23;98195.22;;;35.80;nan
12146;BME280;6136;47.032;15.398;2023-09-30T10:24:54;98195.84;;;36.34;nan
12146;BME280;6136;47.032;15.398;2023-09-30T10:27:31;98183.66;;;36.07;nan
12146;BME280;6136;47.032;15.398;2023-09-30T10:30:08;98195.66;;;35.31;nan
12146;BME280;6136;47.032;15.398;2023-09-30T10:33:08;98189.34;;;34.89;nan
12146;BME280;6136;47.032;15.398;2023-09-30T10:35:47;98191.16;;;35.71;nan
12146;BME280;6136;47.032;15.398;2023-09-30T10:38:39;98185.38;;;37.38;nan
12146;BME280;6136;47.032;15.398;2023-09-30T10:41:08;98184.16;;;35.57;nan
12146;BME280;6136;47.032;15.398;2023-09-30T10:43:40;98178.50;;;36.22;nan
12146;BME280;6136;47.032;15.398;2023-09-30T10:46:30;98172.75;;;37.25;nan
12146;BME280;6136;47.032;15.398;2023-09-30T10:49:29;98165.72;;;36.73;nan
12146;BME280;6136;47.032;15.398;2023-09-30T10:52:00;98165.38;;;36.17;nan
12146;BME280;6136;47.032;15.398;2023-09-30T10:54:32;98159.72;;;35.26;nan
12146;BME280;6136;47.032;15.398;2023-09-30T10:57:01;98166.97;;;35.20;nan
12146;BME280;6136;47.032;15.398;2023-09-30T10:59:31;98161.28;;;34.80;nan
12146;BME280;6136;47.032;15.398;2023-09-30T11:02:02;98163.03;;;36.21;nan
12146;BME280;6136;47.032;15.398;2023-09-30T11:04:45;98161.63;;;35.84;nan
12146;BME280;6136;47.032;15.398;2023-09-30T11:07:19;98151.97;;;34.81;nan
12146;BME280;6136;47.032;15.398;2023-09-30T11:09:53;98159.16;;;34.82;nan
12146;BME280;6136;47.032;15.398;2023-09-30T11:12:23;98162.34;;;35.67;nan
12146;BME280;6136;47.032;15.398;2023-09-30T11:14:59;98149.16;;;35.69;nan
12146;BME280;6136;47.032;15.398;2023-09-30T11:17:28;98158.75;;;35.32;nan
12146;BME280;6136;47.032;15.398;2023-09-30T11:19:57;98161.41;;;35.73;nan
12146;BME280;6136;47.032;15.398;2023-09-30T11:22:26;98139.81;;;35.47;nan
12146;BME280;6136;47.032;15.398;2023-09-30T11:24:56;98156.13;;;35.60;nan
12146;BME280;6136;47.032;15.398;2023-09-30T11:27:25;98145.41;;;35.17;nan
12146;BME280;6136;47.032;15.398;2023-09-30T11:29:54;98136.25;;;36.22;nan
12146;BME280;6136;47.032;15.398;2023-09-30T11:32:24;98135.72;;;34.13;nan
12146;BME280;6136;47.032;15.398;2023-09-30T11:34:54;98136.25;;;32.99;nan
12146;BME280;6136;47.032;15.398;2023-09-30T11:37:22;98148.38;;;31.45;nan
12146;BME280;6136;47.032;15.398;2023-09-30T11:39:51;98133.66;;;31.33;nan
12146;BME280;6136;47.032;15.398;2023-09-30T11:42:21;98139.75;;;32.12;nan
12146;BME280;6136;47.032;15.398;2023-09-30T11:44:51;98132.66;;;32.74;nan
12146;BME280;6136;47.032;15.398;2023-09-30T11:47:28;98127.59;;;34.37;nan
12146;BME280;6136;47.032;15.398;2023-09-30T11:49:58;98128.16;;;34.68;nan
12146;BME280;6136;47.032;15.398;2023-09-30T11:52:27;98131.19;;;34.67;nan
12146;BME280;6136;47.032;15.398;2023-09-30T11:54:56;98113.59;;;34.68;nan
12146;BME280;6136;47.032;15.398;2023-09-30T11:57:26;98134.56;;;33.66;nan
12146;BME280;6136;47.032;15.398;2023-09-30T11:59:55;98122.44;;;33.74;nan
12146;BME280;6136;47.032;15.398;2023-09-30T12:02:23;98128.84;;;34.94;nan
12146;BME280;6136;47.032;15.398;2023-09-30T12:04:51;98111.25;;;34.53;nan
12146;BME280;6136;47.032;15.398;2023-09-30T12:07:20;98103.34;;;33.18;nan
12146;BME280;6136;47.032;15.398;2023-09-30T12:09:49;98112.72;;;32.85;nan
12146;BME280;6136;47.032;15.398;2023-09-30T12:12:17;98108.34;;;32.01;nan
12146;BME280;6136;47.032;15.398;2023-09-30T12:14:47;98112.28;;;31.68;nan
12146;BME280;6136;47.032;15.398;2023-09-30T12:17:17;98124.16;;;31.35;nan
12146;BME280;6136;47.032;15.398;2023-09-30T12:19:48;98127.13;;;32.05;nan
12146;BME280;6136;47.032;15.398;2023-09-30T12:22:17;98128.50;;;31.76;nan
12146;BME280;6136;47.032;15.398;2023-09-30T12:24:45;98126.91;;;31.29;nan
12146;BME280;6136;47.032;15.398;2023-09-30T12:27:14;98132.81;;;31.26;nan
12146;BME280;6136;47.032;15.398;2023-09-30T12:29:44;98118.72;;;31.15;nan
12146;BME280;6136;47.032;15.398;2023-09-30T12:32:16;98139.41;;;30.24;nan
12146;BME280;6136;47.032;15.398;2023-09-30T12:34:45;98130.53;;;30.09;nan
12146;BME280;6136;47.032;15.398;2023-09-30T12:37:14;98132.09;;;29.84;nan
12146;BME280;6136;47.032;15.398;2023-09-30T12:39:43;98127.56;;;29.28;nan
12146;BME280;6136;47.032;15.398;2023-09-30T12:42:12;98128.75;;;28.49;nan
12146;BME280;6136;47.032;15.398;2023-09-30T12:44:41;98121.38;;;28.43;nan
12146;BME280;6136;47.032;15.398;2023-09-30T12:47:10;98136.09;;;28.48;nan
12146;BME280;6136;47.032;15.398;2023-09-30T12:49:41;98132.47;;;28.05;nan
12146;BME280;6136;47.032;15.398;2023-09-30T12:52:10;98130.22;;;28.45;nan
12146;BME280;6136;47.032;15.398;2023-09-30T12:54:38;98122.28;;;28.50;nan
12146;BME280;6136;47.032;15.398;2023-09-30T12:57:07;98128.63;;;28.57;nan
12146;BME280;6136;47.032;15.398;2023-09-30T12:59:35;98128.13;;;28.89;nan
12146;BME280;6136;47.032;15.398;2023-09-30T13:02:04;98103.06;;;28.15;nan
12146;BME280;6136;47.032;15.398;2023-09-30T13:04:33;98101.97;;;27.80;nan
12146;BME280;6136;47.032;15.398;2023-09-30T13:07:03;98109.91;;;27.61;nan
12146;BME280;6136;47.032;15.398;2023-09-30T13:09:32;98115.34;;;27.75;nan
12146;BME280;6136;47.032;15.398;2023-09-30T13:12:01;98111.31;;;28.07;nan
12146;BME280;6136;47.032;15.398;2023-09-30T13:14:29;98099.28;;;28.16;nan
12146;BME280;6136;47.032;15.398;2023-09-30T13:16:58;98117.44;;;27.95;nan
12146;BME280;6136;47.032;15.398;2023-09-30T13:19:27;98115.00;;;28.36;nan
12146;BME280;6136;47.032;15.398;2023-09-30T13:21:55;98110.91;;;28.46;nan
12146;BME280;6136;47.032;15.398;2023-09-30T13:24:25;98113.84;;;28.45;nan
12146;BME280;6136;47.032;15.398;2023-09-30T13:26:55;98113.38;;;28.41;nan
12146;BME280;6136;47.032;15.398;2023-09-30T13:29:23;98122.22;;;28.43;nan
12146;BME280;6136;47.032;15.398;2023-09-30T13:31:51;98112.25;;;28.14;nan
12146;BME280;6136;47.032;15.398;2023-09-30T13:34:20;98100.66;;;28.27;nan
12146;BME280;6136;47.032;15.398;2023-09-30T13:36:48;98107.75;;;28.22;nan
12146;BME280;6136;47.032;15.398;2023-09-30T13:39:17;98108.81;;;27.91;nan
12146;BME280;6136;47.032;15.398;2023-09-30T13:41:47;98117.34;;;28.03;nan